Terminal Aerodrome Forecast
Issued by NWS

Current Version | Previous Version | Text Only | Print | Product List | Glossary Off
Versions: 1 2 3 4 5 6 7 8 9 10 11 12 13 14 15 16 17 18 19 20

000
FTUS41 KPBZ 241100
TAFMGW
TAF
KMGW 241127Z 2412/2512 01005KT P6SM OVC007
     FM241500 02005KT P6SM OVC015
     FM241800 03005KT P6SM BKN025
     FM242200 03005KT P6SM SCT200
     FM250900 13008KT P6SM -RA OVC025=

USA.gov is the U.S. government's official web portal to all federal, state and local government web resources and services.